Quartz Hill, California
Current Conditions -  °F | °C
As of 12:53 AM on Thursday 23 Oct 2014 (Local Time) from KPMD Reporting Station
Clear Clear  
Wind Chill: 56°   Ceiling: Unl
Heat Index: 56°   Visibility: 10mi
Dew Point: 33°   Wind: 7mph
Humidity: 42%   Direction: 200°SSW
Pressure: 30.06"   Gusts: NA
Location:  34.5959°N, 118.235°W
Report Text: KPMD 230753Z AUTO 20006KT 10SM CLR 13/01 A3006 RMK AO2 SLP161 T01330006 402720072
Loading
Personal Weather Stations






























Interactive Weather Map New forecast layout! Learn more

10-Day Weather Forecast

Advertisements
Track Severe Weather on mobile